Correctionville, IA (51016)

12:03 PM CDT on July 27, 2016 (GMT -0500)
Cushing-Bendixen | | Change Station

Elev 1283 ft 42.47 °N, 95.68 °W | Updated 2 seconds ago

Clear
Clear
79.5 °F
Feels Like 82 °F
N
0.4
Wind Variable Wind from West
Gusts 2.5 mph

Today
High -- | Low -- °F
--% Chance of Precip.
Yesterday
High -- | Low -- °F
Precip. -- in
Pressure 30.00 in
Visibility 10.0 miles
Clouds Clear
Heat Index 82 °F
Dew Point 70 °F
Humidity 73%
Rainfall 0.00 in
Snow Depth Not available.
6:10 AM 8:47 PM
Last Quarter, 41% visible
METAR KCKP 271655Z AUTO 22008KT 10SM CLR 27/23 A3000 RMK AO2 T02690228
Pressure 30.00 in
Visibility 10.0 miles
Clouds Clear
Heat Index 82 °F
Dew Point 70 °F
Humidity 73%
Rainfall 0.00 in
Snow Depth Not available.
6:10 AM 8:47 PM
Last Quarter, 41% visible
METAR KCKP 271655Z AUTO 22008KT 10SM CLR 27/23 A3000 RMK AO2 T02690228

10-Day Weather Forecast

Almanac

Astronomy

Jul. 27, 2016 Rise Set
Actual Time
Civil Twilight
Nautical Twilight
Astronomical Twilight
Moon
Length of Visible Light
Length of Day
Tomorrow will be .
, % of the Moon is Illuminated

Today's Extremes

State Highs State Lows

Community

WunderPhotos

Upload Photos

1,927,882 photos uploaded!

WunderBlog® & News

Nearby

Air Quality

  Air Quality AQ Index Pollutant
Not available.

Snow Depth

Station Depth Elevation

Earthquake Activity

City Distance Mag. Time & Date
Minimum magnitude displayed is 2.5.

Coastal Water Temperatures

Place Temperature

Stations

Nearby Weather Stations

Station Location Temp. Windchill Dew Point Humidity Wind Precip. Elev Updated Type
                   

Watches & Warnings

There are currently no watches in effect.